createdAt,value
2022-07-29T00:00:25.242Z,19.90
2022-07-29T00:02:53.294Z,19.80
2022-07-29T00:05:21.455Z,19.90
2022-07-29T00:07:49.500Z,19.90
2022-07-29T00:10:17.508Z,19.90
2022-07-29T00:12:45.604Z,19.90
2022-07-29T00:15:15.079Z,19.90
2022-07-29T00:17:43.178Z,19.90
2022-07-29T00:20:12.158Z,19.90
2022-07-29T00:22:41.171Z,19.80
2022-07-29T00:25:10.024Z,19.80
2022-07-29T00:27:38.556Z,19.70
2022-07-29T00:30:08.669Z,19.70
2022-07-29T00:32:38.024Z,19.60
2022-07-29T00:35:26.825Z,19.60
2022-07-29T00:37:54.794Z,19.60
2022-07-29T00:40:23.395Z,19.50
2022-07-29T00:42:53.502Z,19.50
2022-07-29T00:45:22.924Z,19.50
2022-07-29T00:47:52.425Z,19.50
2022-07-29T00:50:20.699Z,19.50
2022-07-29T00:52:49.370Z,19.50
2022-07-29T00:55:18.137Z,19.60
2022-07-29T00:57:46.802Z,19.60
2022-07-29T01:00:18.354Z,19.60
2022-07-29T01:02:48.425Z,19.60
2022-07-29T01:05:19.942Z,19.60
2022-07-29T01:07:49.692Z,19.70
2022-07-29T01:10:20.302Z,19.70
2022-07-29T01:12:52.372Z,19.60
2022-07-29T01:15:20.610Z,19.50
2022-07-29T01:17:54.109Z,19.50
2022-07-29T01:20:32.851Z,19.50
2022-07-29T01:23:24.570Z,19.50
2022-07-29T01:26:32.412Z,19.40
2022-07-29T01:29:07.428Z,19.40
2022-07-29T01:31:58.836Z,19.30
2022-07-29T01:34:32.154Z,19.30
2022-07-29T01:37:08.819Z,19.20
2022-07-29T01:39:39.233Z,19.10
2022-07-29T01:42:16.607Z,19.00
2022-07-29T01:44:52.936Z,19.00
2022-07-29T01:47:25.368Z,19.00
2022-07-29T01:49:58.691Z,19.10
2022-07-29T01:52:38.346Z,19.20
2022-07-29T01:55:11.576Z,19.20
2022-07-29T01:57:42.377Z,19.10
2022-07-29T02:00:14.303Z,19.00
2022-07-29T02:02:45.593Z,19.00
2022-07-29T02:05:16.823Z,19.00
2022-07-29T02:07:46.670Z,18.90
2022-07-29T02:10:16.120Z,18.70
2022-07-29T02:12:50.581Z,18.80
2022-07-29T02:15:21.532Z,18.80
2022-07-29T02:17:55.117Z,18.80
2022-07-29T02:20:25.935Z,18.80
2022-07-29T02:22:56.051Z,18.80
2022-07-29T02:25:25.384Z,18.80
2022-07-29T02:28:07.257Z,18.70
2022-07-29T02:30:41.030Z,18.80
2022-07-29T02:33:10.645Z,18.90
2022-07-29T02:35:40.644Z,18.90
2022-07-29T02:38:28.238Z,18.80
2022-07-29T02:40:58.778Z,18.80
2022-07-29T02:43:27.894Z,18.80
2022-07-29T02:45:58.658Z,18.90
2022-07-29T02:48:34.543Z,18.90
2022-07-29T02:51:09.047Z,18.90
2022-07-29T02:53:43.495Z,18.90
2022-07-29T02:56:15.895Z,18.90
2022-07-29T02:58:51.602Z,18.80
2022-07-29T03:01:25.165Z,18.70
2022-07-29T03:03:55.509Z,18.70
2022-07-29T03:06:28.769Z,18.70
2022-07-29T03:09:13.014Z,18.70
2022-07-29T03:11:49.837Z,18.60
2022-07-29T03:14:21.009Z,18.70
2022-07-29T03:16:51.915Z,18.70
2022-07-29T03:19:21.326Z,18.70
2022-07-29T03:21:49.763Z,18.60
2022-07-29T03:24:28.889Z,18.50
2022-07-29T03:26:57.562Z,18.60
2022-07-29T03:29:33.297Z,18.50
2022-07-29T03:32:08.493Z,18.50
2022-07-29T03:34:38.507Z,18.50
2022-07-29T03:37:07.195Z,18.60
2022-07-29T03:39:40.648Z,18.60
2022-07-29T03:42:10.706Z,18.70
2022-07-29T03:44:40.814Z,18.60
2022-07-29T03:47:11.731Z,18.60
2022-07-29T03:49:42.205Z,18.50
2022-07-29T03:52:10.922Z,18.50
2022-07-29T03:54:39.051Z,18.50
2022-07-29T03:57:07.874Z,18.50
2022-07-29T03:59:36.169Z,18.50
2022-07-29T04:02:08.401Z,18.60
2022-07-29T04:04:38.287Z,18.60
2022-07-29T04:07:06.516Z,18.60
2022-07-29T04:09:34.674Z,18.70
2022-07-29T04:12:04.269Z,18.80
2022-07-29T04:14:33.772Z,18.90
2022-07-29T04:17:02.836Z,18.80
2022-07-29T04:19:31.059Z,18.90
2022-07-29T04:22:01.265Z,19.00
2022-07-29T04:24:30.005Z,19.00
2022-07-29T04:26:58.123Z,19.10
2022-07-29T04:29:26.238Z,19.10
2022-07-29T04:31:54.215Z,19.30
2022-07-29T04:34:22.267Z,19.80
2022-07-29T04:36:50.255Z,20.30
2022-07-29T04:39:22.946Z,20.60
2022-07-29T04:41:52.467Z,20.70
2022-07-29T04:44:22.994Z,20.70
2022-07-29T04:46:57.625Z,20.40
2022-07-29T04:49:26.145Z,20.10
2022-07-29T04:51:54.415Z,19.90
2022-07-29T04:54:23.887Z,19.90
2022-07-29T04:56:53.637Z,19.90
2022-07-29T04:59:21.688Z,20.00
2022-07-29T05:01:49.784Z,20.00
2022-07-29T05:04:18.313Z,20.00
2022-07-29T05:06:46.828Z,20.00
2022-07-29T05:09:14.871Z,20.00
2022-07-29T05:11:44.275Z,20.00
2022-07-29T05:14:12.308Z,20.00
2022-07-29T05:16:41.247Z,20.30
2022-07-29T05:19:13.822Z,20.40
2022-07-29T05:21:42.792Z,20.60
2022-07-29T05:24:10.845Z,20.60
2022-07-29T05:26:38.902Z,20.80
2022-07-29T05:29:08.347Z,20.80
2022-07-29T05:31:56.318Z,20.80
2022-07-29T05:34:24.745Z,20.90
2022-07-29T05:36:52.802Z,21.10
2022-07-29T05:39:20.833Z,21.40
2022-07-29T05:41:51.973Z,21.60
2022-07-29T05:44:21.615Z,21.90
2022-07-29T05:46:53.468Z,22.20
2022-07-29T05:49:23.161Z,22.50
2022-07-29T05:51:55.850Z,22.90
2022-07-29T05:54:23.870Z,23.00
2022-07-29T05:56:52.180Z,23.30
2022-07-29T05:59:24.917Z,23.60
2022-07-29T06:01:55.663Z,23.90
2022-07-29T06:04:23.861Z,24.20
2022-07-29T06:06:51.937Z,24.80
2022-07-29T06:09:19.978Z,25.60
2022-07-29T06:11:48.010Z,26.80
2022-07-29T06:14:16.463Z,27.50
2022-07-29T06:16:46.067Z,27.90
2022-07-29T06:19:14.117Z,27.30
2022-07-29T06:21:44.518Z,26.10
2022-07-29T06:24:13.419Z,25.40
2022-07-29T06:26:42.015Z,25.60
2022-07-29T06:29:11.602Z,26.90
2022-07-29T06:31:40.126Z,28.40
2022-07-29T06:34:09.763Z,29.20
2022-07-29T06:36:39.722Z,30.10
2022-07-29T06:39:09.980Z,29.60
2022-07-29T06:41:39.842Z,29.40
2022-07-29T06:44:07.995Z,29.50
2022-07-29T06:46:36.162Z,29.90
2022-07-29T06:49:04.501Z,30.50
2022-07-29T06:51:34.056Z,30.40
2022-07-29T06:54:06.767Z,30.00
2022-07-29T06:56:39.883Z,29.00
2022-07-29T06:59:09.386Z,29.00
2022-07-29T07:01:38.159Z,29.20
2022-07-29T07:04:06.471Z,30.20
2022-07-29T07:06:36.169Z,30.10
2022-07-29T07:09:04.476Z,31.40
2022-07-29T07:11:32.696Z,32.00
2022-07-29T07:14:03.906Z,32.20
2022-07-29T07:16:54.961Z,31.70
2022-07-29T07:19:23.014Z,30.70
2022-07-29T07:21:52.393Z,30.40
2022-07-29T07:24:20.427Z,29.70
2022-07-29T07:26:48.993Z,30.10
2022-07-29T07:29:17.179Z,31.20
2022-07-29T07:31:45.319Z,31.20
2022-07-29T07:34:13.752Z,30.90
2022-07-29T07:36:42.082Z,30.30
2022-07-29T07:39:11.446Z,30.50
2022-07-29T07:41:39.526Z,31.50
2022-07-29T07:44:07.683Z,32.20
2022-07-29T07:46:35.784Z,32.90
2022-07-29T07:49:03.990Z,32.40
2022-07-29T07:51:31.991Z,33.40
2022-07-29T07:54:00.076Z,32.10
2022-07-29T07:56:34.872Z,33.40
2022-07-29T07:59:03.426Z,33.10
2022-07-29T08:01:48.099Z,33.20
2022-07-29T08:04:24.919Z,32.40
2022-07-29T08:06:55.640Z,31.60
2022-07-29T08:09:29.636Z,32.70
2022-07-29T08:12:00.453Z,33.30
2022-07-29T08:14:28.530Z,33.30
2022-07-29T08:16:56.656Z,33.00
2022-07-29T08:19:24.776Z,33.80
2022-07-29T08:21:54.963Z,33.30
2022-07-29T08:24:45.163Z,33.70
2022-07-29T08:27:40.567Z,33.80
2022-07-29T08:30:03.645Z,33.20
2022-07-29T08:32:52.427Z,31.20
2022-07-29T08:35:20.624Z,32.60
2022-07-29T08:37:48.842Z,33.60
2022-07-29T08:40:17.105Z,33.70
2022-07-29T08:42:46.533Z,32.90
2022-07-29T08:45:14.908Z,33.00
2022-07-29T08:47:43.261Z,33.00
2022-07-29T08:50:12.039Z,32.60
2022-07-29T08:52:41.964Z,31.70
2022-07-29T08:55:11.633Z,32.20
2022-07-29T08:57:50.786Z,32.10
2022-07-29T09:00:24.205Z,32.10
2022-07-29T09:02:58.658Z,33.50
2022-07-29T09:05:27.941Z,34.00
2022-07-29T09:07:56.420Z,34.20
2022-07-29T09:10:24.801Z,34.20
2022-07-29T09:12:53.313Z,34.60
2022-07-29T09:15:22.829Z,35.40
2022-07-29T09:17:51.666Z,35.30
2022-07-29T09:20:21.280Z,35.30
2022-07-29T09:22:50.438Z,34.40
2022-07-29T09:25:35.644Z,33.70
2022-07-29T09:28:10.461Z,34.30
2022-07-29T09:30:52.112Z,35.20
2022-07-29T09:33:20.890Z,35.50
2022-07-29T09:36:01.842Z,35.20
2022-07-29T09:38:30.418Z,35.50
2022-07-29T09:40:59.890Z,35.50
2022-07-29T09:43:33.846Z,36.10
2022-07-29T09:46:13.521Z,36.70
2022-07-29T09:48:41.758Z,36.90
2022-07-29T09:51:21.305Z,36.80
2022-07-29T09:53:51.343Z,36.60
2022-07-29T09:56:21.818Z,35.30
2022-07-29T09:58:50.144Z,34.90
2022-07-29T10:01:30.046Z,33.50
2022-07-29T10:03:58.180Z,32.50
2022-07-29T10:06:26.293Z,31.70
2022-07-29T10:08:54.462Z,31.60
2022-07-29T10:11:22.860Z,32.00
2022-07-29T10:13:51.061Z,32.20
2022-07-29T10:16:20.651Z,31.90
2022-07-29T10:18:48.883Z,31.90
2022-07-29T10:21:22.495Z,32.70
2022-07-29T10:24:03.828Z,32.10
2022-07-29T10:26:32.334Z,31.00
2022-07-29T10:29:00.623Z,29.90
2022-07-29T10:31:38.807Z,29.30
2022-07-29T10:34:16.639Z,28.60
2022-07-29T10:37:05.987Z,28.00
2022-07-29T10:39:49.587Z,27.70
2022-07-29T10:42:29.705Z,27.30
2022-07-29T10:45:06.077Z,27.00
2022-07-29T10:47:35.753Z,26.70
2022-07-29T10:50:06.146Z,26.50
2022-07-29T10:52:55.410Z,26.40
2022-07-29T10:55:37.759Z,25.90
2022-07-29T10:58:22.213Z,25.20
2022-07-29T11:00:51.647Z,24.60
2022-07-29T11:07:08.918Z,23.40
2022-07-29T11:09:38.445Z,22.80
2022-07-29T11:12:27.383Z,22.50
2022-07-29T11:15:02.495Z,22.10
2022-07-29T11:17:47.154Z,21.60
2022-07-29T11:20:43.628Z,21.20
2022-07-29T11:23:34.039Z,20.90
2022-07-29T11:26:24.817Z,20.90
2022-07-29T11:29:03.310Z,20.90
2022-07-29T11:31:37.337Z,20.90
2022-07-29T11:34:27.974Z,21.00
2022-07-29T11:37:28.371Z,21.10
2022-07-29T11:40:30.151Z,21.10
2022-07-29T11:42:58.408Z,21.20
2022-07-29T11:45:44.812Z,21.20
2022-07-29T11:48:28.820Z,21.10
2022-07-29T11:51:00.613Z,21.20
2022-07-29T11:53:33.060Z,21.30
2022-07-29T11:56:03.577Z,21.30
2022-07-29T11:58:32.583Z,21.30
2022-07-29T12:01:05.073Z,21.60
2022-07-29T12:03:37.305Z,22.00
2022-07-29T12:06:15.078Z,22.40
2022-07-29T12:08:45.500Z,22.60
2022-07-29T12:11:22.486Z,22.10
2022-07-29T12:13:51.863Z,22.30
2022-07-29T12:16:25.304Z,22.30
2022-07-29T12:18:59.520Z,22.70
2022-07-29T12:21:28.891Z,23.10
2022-07-29T12:24:05.858Z,23.60
2022-07-29T12:26:37.997Z,23.90
2022-07-29T12:29:11.412Z,24.20
2022-07-29T12:31:45.612Z,24.70
2022-07-29T12:34:15.248Z,24.80
2022-07-29T12:36:45.031Z,24.40
2022-07-29T12:39:14.667Z,24.10
2022-07-29T12:41:42.847Z,23.60
2022-07-29T12:44:11.325Z,23.20
2022-07-29T12:46:39.724Z,23.50
2022-07-29T12:49:07.915Z,23.40
2022-07-29T12:51:37.923Z,23.30
2022-07-29T12:54:08.614Z,23.20
2022-07-29T12:56:45.594Z,23.10
2022-07-29T12:59:15.961Z,23.00
2022-07-29T13:01:45.188Z,22.90
2022-07-29T13:04:13.284Z,22.70
2022-07-29T13:06:42.726Z,22.30
2022-07-29T13:09:15.650Z,22.10
2022-07-29T13:11:48.797Z,21.90
2022-07-29T13:14:33.398Z,21.90
2022-07-29T13:17:08.458Z,22.00
2022-07-29T13:19:39.306Z,22.00
2022-07-29T13:22:07.891Z,21.80
2022-07-29T13:24:36.130Z,21.50
2022-07-29T13:27:05.909Z,21.10
2022-07-29T13:29:34.276Z,20.80
2022-07-29T13:32:02.439Z,20.70
2022-07-29T13:34:30.449Z,20.50
2022-07-29T13:36:58.551Z,20.30
2022-07-29T13:39:26.615Z,20.40
2022-07-29T13:41:54.930Z,20.40
2022-07-29T13:44:25.707Z,20.50
2022-07-29T13:46:54.768Z,20.60
2022-07-29T13:49:23.431Z,20.70
2022-07-29T13:51:51.817Z,20.80
2022-07-29T13:54:19.887Z,20.80
2022-07-29T13:56:47.943Z,21.00
2022-07-29T13:59:15.921Z,21.40
2022-07-29T14:01:45.589Z,21.90
2022-07-29T14:04:14.768Z,22.20
2022-07-29T14:06:43.120Z,23.00
2022-07-29T14:09:11.624Z,23.50
2022-07-29T14:11:40.734Z,24.00
2022-07-29T14:14:08.988Z,24.40
2022-07-29T14:16:42.012Z,24.80
2022-07-29T14:19:12.595Z,25.00
2022-07-29T14:21:40.931Z,25.30
2022-07-29T14:24:17.971Z,25.50
2022-07-29T14:26:50.169Z,25.30
2022-07-29T14:29:18.237Z,25.20
2022-07-29T14:31:46.429Z,25.40
2022-07-29T14:34:16.941Z,25.60
2022-07-29T14:36:45.004Z,25.80
2022-07-29T14:39:13.427Z,25.90
2022-07-29T14:41:41.417Z,26.00
2022-07-29T14:44:09.515Z,26.30
2022-07-29T14:46:37.547Z,26.30
2022-07-29T14:49:06.613Z,26.40
2022-07-29T14:51:38.894Z,26.50
2022-07-29T14:54:08.499Z,26.80
2022-07-29T14:56:37.562Z,26.70
2022-07-29T14:59:06.848Z,26.70
2022-07-29T15:01:34.982Z,26.70
2022-07-29T15:04:03.172Z,26.50
2022-07-29T15:06:31.308Z,26.50
2022-07-29T15:09:00.702Z,26.20
2022-07-29T15:11:28.767Z,26.20
2022-07-29T15:13:57.189Z,26.10
2022-07-29T15:16:25.332Z,26.10
2022-07-29T15:18:53.402Z,26.20
2022-07-29T15:21:21.422Z,26.10
2022-07-29T15:23:49.476Z,25.80
2022-07-29T15:26:18.916Z,26.10
2022-07-29T15:28:47.020Z,26.20
2022-07-29T15:31:15.119Z,26.30
2022-07-29T15:33:43.402Z,26.10
2022-07-29T15:36:25.491Z,25.70
2022-07-29T15:39:00.720Z,25.60
2022-07-29T15:41:30.230Z,25.80
2022-07-29T15:43:58.251Z,26.00
2022-07-29T15:46:43.946Z,25.70
2022-07-29T15:49:12.069Z,25.60
2022-07-29T15:51:40.133Z,25.60
2022-07-29T15:54:08.269Z,25.50
2022-07-29T15:56:37.709Z,25.40
2022-07-29T15:59:05.857Z,25.30
2022-07-29T16:01:33.918Z,25.50
2022-07-29T16:04:02.918Z,25.60
2022-07-29T16:06:32.095Z,25.60
2022-07-29T16:09:00.580Z,25.40
2022-07-29T16:11:28.681Z,25.40
2022-07-29T16:13:58.108Z,25.40
2022-07-29T16:16:27.050Z,25.20
2022-07-29T16:18:55.464Z,25.20
2022-07-29T16:21:23.834Z,25.40
2022-07-29T16:23:52.895Z,25.60
2022-07-29T16:26:21.012Z,25.50
2022-07-29T16:28:49.115Z,25.20
2022-07-29T16:31:23.136Z,25.30
2022-07-29T16:33:54.917Z,25.20
2022-07-29T16:36:24.344Z,25.10
2022-07-29T16:38:52.363Z,25.10
2022-07-29T16:41:20.494Z,25.20
2022-07-29T16:43:48.530Z,25.30
2022-07-29T16:46:18.516Z,25.10
2022-07-29T16:48:49.424Z,24.80
2022-07-29T16:51:17.677Z,24.70
2022-07-29T16:53:45.868Z,24.60
2022-07-29T16:56:18.723Z,24.30
2022-07-29T16:58:47.176Z,24.30
2022-07-29T17:01:16.048Z,24.40
2022-07-29T17:04:00.179Z,24.40
2022-07-29T17:06:30.081Z,24.30
2022-07-29T17:08:58.135Z,24.50
2022-07-29T17:11:52.477Z,24.50
2022-07-29T17:14:16.313Z,24.50
2022-07-29T17:17:00.641Z,24.70
2022-07-29T17:19:30.762Z,24.70
2022-07-29T17:22:11.324Z,24.70
2022-07-29T17:24:42.642Z,24.70
2022-07-29T17:27:11.171Z,24.70
2022-07-29T17:29:39.695Z,24.90
2022-07-29T17:32:09.075Z,24.90
2022-07-29T17:34:37.692Z,25.00
2022-07-29T17:37:08.408Z,24.90
2022-07-29T17:39:36.505Z,24.90
2022-07-29T17:42:04.938Z,24.90
2022-07-29T17:44:36.222Z,25.00
2022-07-29T17:47:05.182Z,25.00
2022-07-29T17:49:36.392Z,24.90
2022-07-29T17:52:07.327Z,24.90
2022-07-29T17:54:35.345Z,24.90
2022-07-29T17:57:03.391Z,25.00
2022-07-29T17:59:31.415Z,25.10
2022-07-29T18:01:59.469Z,25.00
2022-07-29T18:04:28.632Z,24.90
2022-07-29T18:06:56.871Z,24.90
2022-07-29T18:09:26.482Z,24.80
2022-07-29T18:11:54.559Z,24.70
2022-07-29T18:14:22.564Z,24.70
2022-07-29T18:16:51.074Z,24.70
2022-07-29T18:19:19.171Z,24.70
2022-07-29T18:21:54.853Z,24.70
2022-07-29T18:24:25.654Z,24.60
2022-07-29T18:26:56.584Z,24.60
2022-07-29T18:29:24.934Z,24.40
2022-07-29T18:31:52.908Z,24.30
2022-07-29T18:34:20.932Z,24.30
2022-07-29T18:36:48.977Z,24.30
2022-07-29T18:39:21.210Z,24.10
2022-07-29T18:41:51.215Z,24.00
2022-07-29T18:44:22.689Z,23.90
2022-07-29T18:46:52.041Z,23.80
2022-07-29T18:49:20.515Z,23.60
2022-07-29T18:51:49.074Z,23.50
2022-07-29T18:54:18.359Z,23.40
2022-07-29T18:56:47.228Z,23.40
2022-07-29T18:59:16.969Z,23.30
2022-07-29T19:01:46.947Z,23.30
2022-07-29T19:04:18.240Z,23.20
2022-07-29T19:06:46.437Z,23.20
2022-07-29T19:09:14.572Z,23.10
2022-07-29T19:11:42.576Z,23.00
2022-07-29T19:14:10.753Z,22.80
2022-07-29T19:16:38.824Z,22.80
2022-07-29T19:19:10.118Z,22.70
2022-07-29T19:21:38.152Z,22.60
2022-07-29T19:24:10.125Z,22.50
2022-07-29T19:26:46.476Z,22.30
2022-07-29T19:29:15.068Z,22.30
2022-07-29T19:31:43.229Z,22.20
2022-07-29T19:34:13.141Z,22.20
2022-07-29T19:36:41.860Z,22.20
2022-07-29T19:39:10.455Z,22.20
2022-07-29T19:41:39.041Z,22.20
2022-07-29T19:44:07.168Z,22.20
2022-07-29T19:46:35.182Z,22.20
2022-07-29T19:49:03.366Z,22.20
2022-07-29T19:51:32.781Z,22.20
2022-07-29T19:54:00.880Z,22.10
2022-07-29T19:56:30.173Z,22.10
2022-07-29T19:58:58.875Z,21.90
2022-07-29T20:01:27.011Z,21.70
2022-07-29T20:03:55.132Z,21.60
2022-07-29T20:06:23.737Z,21.40
2022-07-29T20:08:58.208Z,21.30
2022-07-29T20:11:27.374Z,21.20
2022-07-29T20:13:55.459Z,21.10
2022-07-29T20:16:23.616Z,20.90
2022-07-29T20:18:53.575Z,20.80
2022-07-29T20:21:21.578Z,20.70
2022-07-29T20:23:49.819Z,20.80
2022-07-29T20:26:19.299Z,21.10
2022-07-29T20:28:49.459Z,21.50
2022-07-29T20:31:18.874Z,21.50
2022-07-29T20:33:47.036Z,21.60
2022-07-29T20:36:15.383Z,21.50
2022-07-29T20:38:43.681Z,21.40
2022-07-29T20:41:11.676Z,21.30
2022-07-29T20:43:41.444Z,21.00
2022-07-29T20:46:10.110Z,21.00
2022-07-29T20:48:39.745Z,21.00
2022-07-29T20:51:08.454Z,21.20
2022-07-29T20:53:38.252Z,21.10
2022-07-29T20:56:07.654Z,20.90
2022-07-29T20:58:36.532Z,21.00
2022-07-29T21:01:07.004Z,20.80
2022-07-29T21:03:35.336Z,20.60
2022-07-29T21:06:03.866Z,20.40
2022-07-29T21:08:32.086Z,20.30
2022-07-29T21:11:00.212Z,20.20
2022-07-29T21:13:28.600Z,20.00
2022-07-29T21:16:01.016Z,19.90
2022-07-29T21:18:32.593Z,19.90
2022-07-29T21:21:02.059Z,19.70
2022-07-29T21:23:30.198Z,19.90
2022-07-29T21:25:58.875Z,19.90
2022-07-29T21:28:30.618Z,19.90
2022-07-29T21:31:00.427Z,19.90
2022-07-29T21:33:33.260Z,19.70
2022-07-29T21:38:49.992Z,19.50
2022-07-29T21:41:18.082Z,19.40
2022-07-29T21:43:46.154Z,19.40
2022-07-29T21:46:16.502Z,19.40
2022-07-29T21:48:45.997Z,19.50
2022-07-29T21:51:14.057Z,19.40
2022-07-29T21:53:42.061Z,19.30
2022-07-29T21:56:14.776Z,19.40
2022-07-29T21:58:43.336Z,19.40
2022-07-29T22:01:11.534Z,19.30
2022-07-29T22:03:39.648Z,19.20
2022-07-29T22:06:09.203Z,19.10
2022-07-29T22:08:47.845Z,19.10
2022-07-29T22:11:15.925Z,19.00
2022-07-29T22:13:43.947Z,19.00
2022-07-29T22:16:14.876Z,18.80
2022-07-29T22:18:45.118Z,18.80
2022-07-29T22:21:14.853Z,19.00
2022-07-29T22:23:43.188Z,19.20
2022-07-29T22:26:11.216Z,19.20
2022-07-29T22:28:39.392Z,19.00
2022-07-29T22:31:08.867Z,18.90
2022-07-29T22:33:37.191Z,18.80
2022-07-29T22:36:05.638Z,18.70
2022-07-29T22:38:35.061Z,18.60
2022-07-29T22:41:03.466Z,18.50
2022-07-29T22:43:31.624Z,18.40
2022-07-29T22:45:59.875Z,18.40
2022-07-29T22:48:28.321Z,18.50
2022-07-29T22:50:56.444Z,18.60
2022-07-29T22:53:24.588Z,18.50
2022-07-29T22:55:55.869Z,18.40
2022-07-29T22:58:23.967Z,18.30
2022-07-29T23:00:52.131Z,18.20
2022-07-29T23:03:20.369Z,18.10
2022-07-29T23:05:49.161Z,18.10
2022-07-29T23:08:17.266Z,18.10
2022-07-29T23:10:45.649Z,18.00
2022-07-29T23:13:15.550Z,18.00
2022-07-29T23:15:43.604Z,18.10
2022-07-29T23:18:11.661Z,18.10
2022-07-29T23:20:40.076Z,18.10
2022-07-29T23:23:08.175Z,18.30
2022-07-29T23:25:36.181Z,18.40
2022-07-29T23:28:04.393Z,18.40
2022-07-29T23:30:33.885Z,18.50
2022-07-29T23:33:02.678Z,18.50
2022-07-29T23:35:33.026Z,18.50
2022-07-29T23:38:01.367Z,18.50
2022-07-29T23:40:29.627Z,18.50
2022-07-29T23:42:57.705Z,18.60
2022-07-29T23:45:42.442Z,18.70
2022-07-29T23:48:14.587Z,18.70
2022-07-29T23:50:42.745Z,18.80
2022-07-29T23:53:12.061Z,18.90
2022-07-29T23:55:40.112Z,18.80
2022-07-29T23:58:08.331Z,18.90
